Time;durP1;ratioP1;P1;durP2;ratioP2;P2;SDS_P1;SDS_P2;PMS_P1;PMS_P2;Temp;Humidity;BMP_temperature;BMP_pressure;BME280_temperature;BME280_humidity;BME280_pressure;Samples;Min_cycle;Max_cycle;Signal;HPM_P1;HPM_P2
2022/12/10 00:02:59;;;;;;;21.60;8.77;;;;;;;-0.73;100.00;100592.09;6198614;28;20117;-73
2022/12/10 00:06:02;;;;;;;17.85;8.60;;;;;;;-0.71;100.00;100592.94;6198563;28;20046;-73
2022/12/10 00:09:08;;;;;;;20.83;7.60;;;;;;;-0.68;100.00;100592.88;6198739;28;20054;-73
2022/12/10 00:12:09;;;;;;;20.60;9.18;;;;;;;-0.71;100.00;100593.78;6198300;28;20433;-73
2022/12/10 00:15:11;;;;;;;20.05;9.05;;;;;;;-0.67;100.00;100594.63;6198397;28;20046;-73
2022/12/10 00:18:12;;;;;;;23.40;8.77;;;;;;;-0.65;100.00;100598.88;6198473;28;20074;-73
2022/12/10 00:21:17;;;;;;;23.98;9.77;;;;;;;-0.63;100.00;100598.88;6197906;28;20046;-73
2022/12/10 00:24:20;;;;;;;20.35;6.72;;;;;;;-0.58;100.00;100608.28;6198135;28;20046;-73
2022/12/10 00:27:21;;;;;;;17.67;8.02;;;;;;;-0.57;100.00;100609.13;6198185;28;20091;-73
2022/12/10 00:30:23;;;;;;;26.05;8.80;;;;;;;-0.54;100.00;100617.72;6198020;28;20524;-73
2022/12/10 00:33:24;;;;;;;26.02;9.00;;;;;;;-0.57;100.00;100607.41;6198009;28;20050;-73
2022/12/10 00:36:28;;;;;;;23.08;9.25;;;;;;;-0.59;100.00;100604.00;6197871;28;20522;-73
2022/12/10 00:39:30;;;;;;;26.83;9.13;;;;;;;-0.59;100.00;100616.91;6197979;28;20050;-73
2022/12/10 00:42:32;;;;;;;24.52;10.35;;;;;;;-0.63;100.00;100610.06;6197849;28;20050;-73
2022/12/10 00:45:33;;;;;;;24.38;9.15;;;;;;;-0.70;100.00;100610.97;6197619;28;20109;-73
2022/12/10 00:48:35;;;;;;;21.63;9.30;;;;;;;-0.72;100.00;100609.28;6197868;28;20046;-73
2022/12/10 00:51:37;;;;;;;23.40;8.02;;;;;;;-0.73;100.00;100607.56;6197513;28;20053;-73
2022/12/10 00:54:40;;;;;;;27.30;10.40;;;;;;;-0.69;100.00;100606.66;6197891;28;20047;-73
2022/12/10 00:57:41;;;;;;;26.45;9.02;;;;;;;-0.68;100.00;100605.78;6197824;28;20054;-73
2022/12/10 01:00:42;;;;;;;21.70;9.23;;;;;;;-0.66;100.00;100598.91;6197150;28;20061;-72
2022/12/10 01:03:44;;;;;;;15.43;6.60;;;;;;;-0.64;100.00;100600.59;6197442;28;20053;-73
2022/12/10 01:06:48;;;;;;;22.52;10.00;;;;;;;-0.63;100.00;100606.63;6197608;28;20549;-72
2022/12/10 01:09:51;;;;;;;26.13;9.25;;;;;;;-0.62;100.00;100610.91;6197341;28;20498;-73
2022/12/10 01:12:52;;;;;;;27.17;9.40;;;;;;;-0.64;100.00;100613.50;6197367;28;20061;-73
2022/12/10 01:15:53;;;;;;;18.88;8.88;;;;;;;-0.73;100.00;100605.84;6197628;28;20061;-73
2022/12/10 01:18:55;;;;;;;19.35;9.57;;;;;;;-0.76;100.00;100613.63;6197423;28;20050;-73
2022/12/10 01:21:57;;;;;;;37.65;10.32;;;;;;;-0.75;100.00;100619.63;6197382;28;20069;-73
2022/12/10 01:25:00;;;;;;;23.20;8.52;;;;;;;-0.67;100.00;100618.69;6197140;28;20057;-73
2022/12/10 01:28:02;;;;;;;25.95;10.50;;;;;;;-0.71;100.00;100634.22;6197631;28;20053;-73
2022/12/10 01:31:04;;;;;;;21.75;10.48;;;;;;;-0.69;100.00;100624.72;6197200;28;20407;-73
2022/12/10 01:34:08;;;;;;;21.52;9.13;;;;;;;-0.63;100.00;100624.69;6197117;28;20054;-72
2022/12/10 01:37:10;;;;;;;28.85;9.73;;;;;;;-0.62;100.00;100627.25;6197424;28;20046;-73
2022/12/10 01:40:13;;;;;;;23.08;8.93;;;;;;;-0.58;100.00;100633.25;6197004;28;20053;-73
2022/12/10 01:43:15;;;;;;;24.15;11.15;;;;;;;-0.61;100.00;100641.00;6197367;28;20057;-73
2022/12/10 01:46:16;;;;;;;16.85;9.23;;;;;;;-0.56;100.00;100642.66;6196942;28;20057;-73
2022/12/10 01:49:21;;;;;;;28.27;10.70;;;;;;;-0.58;100.00;100641.00;6197337;28;20050;-73
2022/12/10 01:52:22;;;;;;;32.50;9.95;;;;;;;-0.52;100.00;100644.34;6196845;28;20101;-73
2022/12/10 01:55:45;;;;;;;26.15;9.43;;;;;;;-0.52;100.00;100649.50;6196914;28;20513;-73
2022/12/10 01:58:49;;;;;;;15.90;7.03;;;;;;;-0.46;100.00;100647.72;6197160;28;20054;-73
2022/12/10 02:02:00;;;;;;;28.25;11.20;;;;;;;-0.46;100.00;100646.00;6196905;28;20050;-73
2022/12/10 02:05:10;;;;;;;21.65;9.48;;;;;;;-0.47;100.00;100638.28;6196903;28;20067;-73
2022/12/10 02:08:19;;;;;;;21.23;9.35;;;;;;;-0.44;100.00;100646.00;6197179;28;20050;-74
2022/12/10 02:11:29;;;;;;;23.92;9.43;;;;;;;-0.56;100.00;100644.41;6197838;28;20050;-73
2022/12/10 02:14:37;;;;;;;24.55;10.00;;;;;;;-0.52;100.00;100646.06;6201407;28;20050;-73
2022/12/10 02:17:44;;;;;;;25.83;11.13;;;;;;;-0.55;100.00;100646.09;6201099;28;20050;-73
2022/12/10 02:20:50;;;;;;;33.80;10.35;;;;;;;-0.50;100.00;100644.31;6201138;28;20046;-73
2022/12/10 02:23:57;;;;;;;25.10;10.75;;;;;;;-0.51;100.00;100638.31;6200580;28;20049;-73
2022/12/10 02:27:14;;;;;;;27.35;10.57;;;;;;;-0.46;100.00;100637.41;6201156;28;20053;-73
2022/12/10 02:30:17;;;;;;;28.27;10.50;;;;;;;-0.48;100.00;100637.44;6200667;28;20065;-73
2022/12/10 02:33:20;;;;;;;32.00;10.60;;;;;;;-0.48;100.00;100631.41;6200603;28;20047;-73
2022/12/10 02:36:24;;;;;;;25.83;8.70;;;;;;;-0.48;100.00;100637.44;6200577;28;20053;-73
2022/12/10 02:39:31;;;;;;;27.25;11.52;;;;;;;-0.47;100.00;100639.13;6200721;28;20050;-73
2022/12/10 02:42:39;;;;;;;33.47;12.15;;;;;;;-0.43;100.00;100635.66;6200438;28;20498;-73
2022/12/10 02:45:44;;;;;;;28.00;11.15;;;;;;;-0.39;100.00;100628.75;6200344;28;20053;-73
2022/12/10 02:48:47;;;;;;;29.35;11.70;;;;;;;-0.37;100.00;100634.72;6200485;28;20050;-73
2022/12/10 02:51:48;;;;;;;30.63;10.23;;;;;;;-0.37;100.00;100639.91;6200261;28;20046;-73
2022/12/10 02:54:51;;;;;;;24.67;10.85;;;;;;;-0.36;100.00;100646.78;6200071;28;20053;-73
2022/12/10 02:58:12;;;;;;;30.88;10.40;;;;;;;-0.38;100.00;100644.22;6200458;28;20693;-73
2022/12/10 03:01:24;;;;;;;34.63;10.40;;;;;;;-0.40;100.00;100642.53;6199789;28;20050;-73
2022/12/10 03:04:34;;;;;;;30.90;12.43;;;;;;;-0.43;100.00;100648.56;6200110;28;20046;-73
2022/12/10 03:07:40;;;;;;;34.13;11.85;;;;;;;-0.43;100.00;100650.28;6199958;28;20062;-73
2022/12/10 03:10:49;;;;;;;37.75;11.98;;;;;;;-0.48;100.00;100647.75;6199931;28;20057;-73
2022/12/10 03:13:56;;;;;;;26.25;8.57;;;;;;;-0.52;100.00;100652.09;6199763;28;20047;-73
2022/12/10 03:17:01;;;;;;;24.33;9.10;;;;;;;-0.43;100.00;100647.72;6199742;28;20364;-73
2022/12/10 03:20:05;;;;;;;25.80;8.95;;;;;;;-0.42;100.00;100650.28;6199557;28;20050;-73
2022/12/10 03:23:11;;;;;;;19.85;10.10;;;;;;;-0.43;100.00;100651.16;6199280;28;20063;-73
2022/12/10 03:26:15;;;;;;;36.60;11.40;;;;;;;-0.44;100.00;100656.34;6198356;28;20053;-73
2022/12/10 03:29:21;;;;;;;36.97;13.27;;;;;;;-0.41;100.00;100656.28;6199523;28;20050;-73
2022/12/10 03:32:27;;;;;;;34.38;10.27;;;;;;;-0.42;100.00;100650.28;6199410;28;20054;-73
2022/12/10 03:35:30;;;;;;;35.60;11.35;;;;;;;-0.48;100.00;100646.91;6199268;28;20049;-73
2022/12/10 03:38:31;;;;;;;18.73;9.88;;;;;;;-0.49;100.00;100648.63;6199415;28;20046;-73
2022/12/10 03:41:33;;;;;;;27.10;11.02;;;;;;;-0.41;100.00;100646.84;6199073;28;20061;-73
2022/12/10 03:44:40;;;;;;;21.73;9.88;;;;;;;-0.42;100.00;100647.69;6198871;28;20418;-73
2022/12/10 03:47:42;;;;;;;25.55;10.32;;;;;;;-0.38;100.00;100644.22;6199112;28;20054;-73
2022/12/10 03:50:44;;;;;;;33.60;11.50;;;;;;;-0.46;100.00;100638.25;6199115;28;20057;-73
2022/12/10 03:53:45;;;;;;;29.55;9.48;;;;;;;-0.44;100.00;100636.53;6198806;28;20062;-73
2022/12/10 03:56:47;;;;;;;31.50;11.07;;;;;;;-0.37;100.00;100637.31;6198887;28;20069;-73
2022/12/10 03:59:48;;;;;;;35.72;10.05;;;;;;;-0.45;100.00;100627.09;6198618;28;20058;-72
2022/12/10 04:02:51;;;;;;;24.27;9.88;;;;;;;-0.43;100.00;100632.22;6198542;28;20421;-73
2022/12/10 04:05:53;;;;;;;40.22;11.40;;;;;;;-0.44;100.00;100636.53;6198720;28;20053;-73
2022/12/10 04:08:54;;;;;;;41.28;11.52;;;;;;;-0.39;100.00;100632.19;6198517;28;20413;-73
2022/12/10 04:11:57;;;;;;;33.53;13.20;;;;;;;-0.35;100.00;100633.00;6198590;28;20053;-73
2022/12/10 04:18:19;;;;;;;34.33;12.18;;;;;;;-0.44;100.00;100631.38;6198506;28;20054;-73
2022/12/10 04:28:07;;;;;;;;;;;;;;;-0.45;100.00;100645.16;6198744;28;20066;-73
2022/12/10 04:31:08;;;;;;;38.40;10.75;;;;;;;-0.42;100.00;100636.50;6198032;28;19929;-73
2022/12/10 04:34:11;;;;;;;41.40;13.90;;;;;;;-0.40;100.00;100648.53;6197258;28;20050;-73
2022/12/10 04:37:15;;;;;;;27.52;9.82;;;;;;;-0.45;100.00;100644.31;6198094;28;20050;-73
2022/12/10 04:40:16;;;;;;;32.67;9.02;;;;;;;-0.49;100.00;100646.06;6197847;28;20490;-73
2022/12/10 04:43:18;;;;;;;21.75;10.23;;;;;;;-0.42;100.00;100641.69;6198060;28;20050;-73
2022/12/10 04:46:19;;;;;;;23.25;8.95;;;;;;;-0.43;100.00;100642.56;6197594;28;20418;-73
2022/12/10 04:49:23;;;;;;;24.73;9.30;;;;;;;-0.40;100.00;100639.94;6197939;28;20054;-73
2022/12/10 04:52:24;;;;;;;28.20;8.63;;;;;;;-0.41;100.00;100643.38;6197733;28;20047;-73
2022/12/10 04:55:25;;;;;;;40.28;11.07;;;;;;;-0.45;100.00;100645.16;6197823;28;20046;-73
2022/12/10 04:58:30;;;;;;;29.42;9.77;;;;;;;-0.41;100.00;100641.69;6197821;28;20533;-73
2022/12/10 05:01:32;;;;;;;25.77;10.77;;;;;;;-0.41;100.00;100643.38;6197724;28;20054;-73
2022/12/10 05:04:35;;;;;;;24.98;9.45;;;;;;;-0.35;100.00;100643.34;6197599;28;20116;-73
2022/12/10 05:07:37;;;;;;;18.23;7.97;;;;;;;-0.35;100.00;100640.75;6197538;28;20443;-73
2022/12/10 05:10:38;;;;;;;38.33;11.38;;;;;;;-0.33;100.00;100644.16;6197550;28;20050;-73
2022/12/10 05:13:40;;;;;;;25.92;10.15;;;;;;;-0.34;100.00;100645.03;6197489;28;20047;-73
2022/12/10 05:16:42;;;;;;;22.00;7.97;;;;;;;-0.37;100.00;100651.06;6197689;28;20061;-73
2022/12/10 05:19:45;;;;;;;25.38;8.48;;;;;;;-0.41;100.00;100653.69;6197437;28;20062;-73
2022/12/10 05:26:08;;;;;;;22.98;9.10;;;;;;;-0.47;100.00;100649.47;6197093;28;20454;-73
2022/12/10 05:29:10;;;;;;;32.13;10.27;;;;;;;-0.43;100.00;100651.16;6197442;28;20452;-73
2022/12/10 05:32:11;;;;;;;24.73;8.20;;;;;;;-0.44;100.00;100652.03;6197164;28;20050;-73
2022/12/10 05:35:14;;;;;;;23.55;10.05;;;;;;;-0.48;100.00;100652.94;6197433;28;20490;-73
2022/12/10 05:38:15;;;;;;;30.25;8.77;;;;;;;-0.47;100.00;100657.22;6197225;28;20426;-73
2022/12/10 05:41:19;;;;;;;29.88;10.38;;;;;;;-0.40;100.00;100658.03;6197168;28;20059;-73
2022/12/10 05:44:21;;;;;;;24.17;9.02;;;;;;;-0.41;100.00;100653.69;6197158;28;20058;-73
2022/12/10 05:47:22;;;;;;;29.80;10.18;;;;;;;-0.38;100.00;100654.53;6201444;28;20500;-73
2022/12/10 05:50:25;;;;;;;26.40;9.27;;;;;;;-0.47;100.00;100657.22;6201828;28;20058;-73
2022/12/10 05:53:26;;;;;;;31.10;11.15;;;;;;;-0.44;100.00;100654.59;6201583;28;20449;-73
2022/12/10 05:56:28;;;;;;;32.17;9.27;;;;;;;-0.48;100.00;100655.50;6201604;28;20053;-73
2022/12/10 05:59:29;;;;;;;25.45;8.55;;;;;;;-0.41;100.00;100658.88;6201534;28;20060;-73
2022/12/10 06:02:33;;;;;;;31.75;9.73;;;;;;;-0.40;100.00;100660.59;6201516;28;20070;-72
2022/12/10 06:05:38;;;;;;;31.58;9.80;;;;;;;-0.47;100.00;100661.53;6201271;28;20509;-73
2022/12/10 06:08:40;;;;;;;37.13;10.23;;;;;;;-0.46;100.00;100663.22;6201507;28;20057;-73
2022/12/10 06:11:42;;;;;;;22.40;8.60;;;;;;;-0.42;100.00;100663.19;6197633;28;20053;-73
2022/12/10 06:14:43;;;;;;;27.75;10.00;;;;;;;-0.40;100.00;100673.50;6189238;28;20038;-72
2022/12/10 06:17:45;;;;;;;26.67;9.88;;;;;;;-0.37;100.00;100669.16;6192024;28;20047;-73
2022/12/10 06:20:47;;;;;;;23.15;8.15;;;;;;;-0.38;100.00;100674.34;6190354;28;20043;-73
2022/12/10 06:23:51;;;;;;;23.48;7.72;;;;;;;-0.44;100.00;100672.69;6183263;28;20053;-73
2022/12/10 06:26:52;;;;;;;24.58;8.07;;;;;;;-0.37;100.00;100673.47;6176966;28;20113;-73
2022/12/10 06:29:53;;;;;;;22.10;9.75;;;;;;;-0.41;100.00;100672.66;6189540;28;20410;-73
2022/12/10 06:32:55;;;;;;;36.00;8.52;;;;;;;-0.39;100.00;100680.38;6187663;28;20069;-73
2022/12/10 06:35:58;;;;;;;22.42;8.75;;;;;;;-0.35;100.00;100684.66;6180811;28;20509;-73
2022/12/10 06:38:59;;;;;;;26.95;10.10;;;;;;;-0.34;100.00;100681.19;6176637;28;20066;-73
2022/12/10 06:42:01;;;;;;;21.85;8.48;;;;;;;-0.39;100.00;100691.56;6176533;28;20050;-73
2022/12/10 06:45:02;;;;;;;22.45;9.98;;;;;;;-0.37;100.00;100681.19;6176349;28;20063;-73
2022/12/10 06:48:04;;;;;;;32.22;10.00;;;;;;;-0.44;100.00;100677.00;6176236;28;20601;-73
2022/12/10 06:51:07;;;;;;;18.90;7.13;;;;;;;-0.49;100.00;100681.34;6176111;28;20054;-73
2022/12/10 06:54:09;;;;;;;20.20;7.50;;;;;;;-0.52;100.00;100688.22;6176223;28;20073;-73
2022/12/10 06:57:10;;;;;;;28.05;10.50;;;;;;;-0.54;100.00;100694.28;6175579;28;20054;-73
2022/12/10 07:00:13;;;;;;;27.13;8.77;;;;;;;-0.56;100.00;100693.44;6185941;28;20403;-73
2022/12/10 07:03:14;;;;;;;27.58;9.57;;;;;;;-0.51;100.00;100694.25;6186587;28;20057;-73
2022/12/10 07:06:18;;;;;;;29.50;9.75;;;;;;;-0.47;100.00;100705.41;6180358;28;20055;-73
2022/12/10 07:09:20;;;;;;;15.43;7.45;;;;;;;-0.42;100.00;100701.91;6182984;28;20050;-73
2022/12/10 07:12:21;;;;;;;25.08;9.77;;;;;;;-0.41;100.00;100707.91;6186183;28;20066;-73
2022/12/10 07:15:23;;;;;;;30.25;9.52;;;;;;;-0.45;100.00;100707.13;6186290;28;20066;-73
2022/12/10 07:18:25;;;;;;;27.33;9.80;;;;;;;-0.49;100.00;100709.72;6186750;28;20042;-73
2022/12/10 07:21:29;;;;;;;21.13;8.10;;;;;;;-0.46;100.00;100723.44;6185186;28;20098;-73
2022/12/10 07:24:31;;;;;;;27.17;8.43;;;;;;;-0.51;100.00;100717.47;6184436;28;20097;-73
2022/12/10 07:27:32;;;;;;;16.98;7.93;;;;;;;-0.43;100.00;100725.16;6187168;28;20042;-73
2022/12/10 07:30:34;;;;;;;24.75;8.52;;;;;;;-0.44;100.00;100723.44;6184793;28;20510;-73
2022/12/10 07:33:36;;;;;;;23.42;8.95;;;;;;;-0.42;100.00;100719.13;6186680;28;20042;-73
2022/12/10 07:36:39;;;;;;;25.50;8.60;;;;;;;-0.38;100.00;100724.25;6185261;28;20043;-73
2022/12/10 07:39:42;;;;;;;26.60;9.50;;;;;;;-0.35;100.00;100731.13;6185385;28;20410;-73
2022/12/10 07:42:44;;;;;;;18.77;8.20;;;;;;;-0.39;100.00;100732.00;6185938;28;20046;-73
2022/12/10 07:45:45;;;;;;;23.77;6.80;;;;;;;-0.37;100.00;100732.84;6184691;28;20049;-73
2022/12/10 07:48:48;;;;;;;21.23;7.22;;;;;;;-0.41;100.00;100741.47;6186423;28;20046;-73
2022/12/10 07:51:52;;;;;;;21.52;8.57;;;;;;;-0.41;100.00;100746.63;6184502;28;20051;-73
2022/12/10 07:54:53;;;;;;;22.38;9.80;;;;;;;-0.43;100.00;100738.91;6184103;28;20391;-73
2022/12/10 07:57:55;;;;;;;20.05;8.13;;;;;;;-0.41;100.00;100744.06;6186043;28;20050;-73
2022/12/10 08:00:56;;;;;;;27.27;9.55;;;;;;;-0.40;100.00;100746.66;6179462;28;20110;-73
2022/12/10 08:03:57;;;;;;;22.77;8.80;;;;;;;-0.45;100.00;100744.97;6174449;28;20454;-74
2022/12/10 08:07:00;;;;;;;24.52;8.73;;;;;;;-0.41;100.00;100751.78;6174659;28;20046;-74
2022/12/10 08:10:02;;;;;;;20.33;7.68;;;;;;;-0.44;100.00;100757.84;6173691;28;20054;-73
2022/12/10 08:13:04;;;;;;;24.80;9.02;;;;;;;-0.53;100.00;100752.78;6174136;28;20047;-73
2022/12/10 08:16:09;;;;;;;27.20;10.98;;;;;;;-0.48;100.00;100756.16;6174417;28;20043;-76
2022/12/10 08:19:10;;;;;;;26.92;10.05;;;;;;;-0.46;100.00;100762.16;6174312;28;20062;-74
2022/12/10 08:22:13;;;;;;;19.52;7.95;;;;;;;-0.45;100.00;100763.06;6174107;28;20055;-73
2022/12/10 08:25:14;;;;;;;22.52;10.27;;;;;;;-0.50;100.00;100760.47;6174003;28;20050;-73
2022/12/10 08:28:16;;;;;;;22.00;8.48;;;;;;;-0.45;100.00;100766.47;6174470;28;20517;-73
2022/12/10 08:31:19;;;;;;;24.73;9.55;;;;;;;-0.45;100.00;100771.66;6173833;28;20059;-74
2022/12/10 08:34:20;;;;;;;21.80;8.38;;;;;;;-0.49;100.00;100776.84;6173728;28;20050;-74
2022/12/10 08:37:23;;;;;;;29.52;9.93;;;;;;;-0.52;100.00;100775.13;6182988;28;20069;-74
2022/12/10 08:40:25;;;;;;;26.35;9.52;;;;;;;-0.53;100.00;100773.41;6176324;28;20050;-74
2022/12/10 08:43:26;;;;;;;22.83;9.13;;;;;;;-0.46;100.00;100789.69;6173883;28;20057;-73
2022/12/10 08:46:28;;;;;;;22.75;7.80;;;;;;;-0.51;100.00;100790.59;6173746;28;20050;-74
2022/12/10 08:49:29;;;;;;;26.52;9.75;;;;;;;-0.43;100.00;100787.09;6173910;28;20055;-73
2022/12/10 08:52:32;;;;;;;28.02;9.50;;;;;;;-0.42;100.00;100793.97;6173760;28;20051;-76
2022/12/10 08:55:34;;;;;;;17.42;8.13;;;;;;;-0.54;100.00;100797.53;6173790;28;20046;-74
2022/12/10 08:58:36;;;;;;;22.70;8.63;;;;;;;-0.45;100.00;100794.88;6173645;28;20055;-74
2022/12/10 09:01:38;;;;;;;26.10;8.98;;;;;;;-0.40;100.00;100795.69;6173528;28;20050;-74
2022/12/10 09:04:40;;;;;;;20.90;7.78;;;;;;;-0.43;100.00;100797.44;6173628;28;20075;-74
2022/12/10 09:07:43;;;;;;;18.10;9.02;;;;;;;-0.42;100.00;100794.81;6173568;28;20514;-73
2022/12/10 09:10:45;;;;;;;19.67;7.35;;;;;;;-0.45;100.00;100797.47;6173356;28;20062;-73
2022/12/10 09:13:46;;;;;;;28.02;8.90;;;;;;;-0.47;100.00;100804.34;6173431;28;20502;-74
2022/12/10 09:16:48;;;;;;;33.10;9.43;;;;;;;-0.42;100.00;100805.16;6173616;28;20054;-74
2022/12/10 09:19:49;;;;;;;22.63;8.90;;;;;;;-0.44;100.00;100816.38;6173871;28;20112;-74
2022/12/10 09:22:52;;;;;;;19.58;7.05;;;;;;;-0.44;100.00;100813.78;6200537;28;20054;-74
2022/12/10 09:25:54;;;;;;;19.90;8.88;;;;;;;-0.46;100.00;100813.78;6202255;28;20050;-74
2022/12/10 09:28:57;;;;;;;23.70;9.63;;;;;;;-0.46;100.00;100805.19;6202513;28;20046;-74
2022/12/10 09:31:59;;;;;;;17.08;8.82;;;;;;;-0.43;100.00;100808.63;6202175;28;20540;-74
2022/12/10 09:35:00;;;;;;;28.33;10.20;;;;;;;-0.50;100.00;100812.09;6201816;28;20057;-74
2022/12/10 09:38:03;;;;;;;25.27;8.32;;;;;;;-0.40;100.00;100813.75;6202295;28;20529;-74
2022/12/10 09:41:08;;;;;;;15.93;7.47;;;;;;;-0.35;100.00;100811.16;6201999;28;20061;-74
2022/12/10 09:44:18;;;;;;;17.98;8.20;;;;;;;-0.33;100.00;100810.25;6201942;28;20559;-74
2022/12/10 09:47:19;;;;;;;19.10;8.02;;;;;;;-0.39;100.00;100812.88;6201922;28;20057;-74
2022/12/10 09:50:28;;;;;;;21.60;9.45;;;;;;;-0.34;100.00;100821.44;6201718;28;20050;-74
2022/12/10 09:53:32;;;;;;;25.25;9.20;;;;;;;-0.41;100.00;100818.91;6201742;28;20065;-74
2022/12/10 09:56:35;;;;;;;19.08;7.80;;;;;;;-0.38;100.00;100822.34;6201876;28;20140;-74
2022/12/10 09:59:41;;;;;;;33.13;11.32;;;;;;;-0.38;100.00;100816.31;6201571;28;20050;-73
2022/12/10 10:02:42;;;;;;;28.80;9.30;;;;;;;-0.40;100.00;100812.91;6201772;28;20061;-74
2022/12/10 10:05:47;;;;;;;16.90;8.10;;;;;;;-0.39;100.00;100812.88;6201356;28;20070;-74
2022/12/10 10:08:54;;;;;;;27.48;9.18;;;;;;;-0.38;100.00;100814.59;6201420;28;20054;-74
2022/12/10 10:11:56;;;;;;;18.27;8.30;;;;;;;-0.40;100.00;100821.50;6190333;28;20498;-74
2022/12/10 10:14:58;;;;;;;21.95;8.40;;;;;;;-0.43;100.00;100815.50;6187389;28;20061;-74
2022/12/10 10:18:07;;;;;;;23.35;9.32;;;;;;;-0.48;100.00;100822.44;6187344;28;20065;-74
2022/12/10 10:21:21;;;;;;;23.20;8.48;;;;;;;-0.40;100.00;100820.66;6185897;28;20051;-74
2022/12/10 10:24:34;;;;;;;12.55;6.85;;;;;;;-0.41;100.00;100814.63;6179804;28;20047;-74
2022/12/10 10:27:35;;;;;;;16.33;7.57;;;;;;;-0.36;100.00;100824.94;6176846;28;20050;-74
2022/12/10 10:30:37;;;;;;;19.00;7.75;;;;;;;-0.35;100.00;100818.91;6176850;28;20054;-74
2022/12/10 10:33:50;;;;;;;13.80;7.50;;;;;;;-0.32;100.00;100821.44;6175839;28;20137;-74
2022/12/10 10:36:57;;;;;;;19.42;8.60;;;;;;;-0.33;100.00;100815.41;6176807;28;20051;-74
2022/12/10 10:40:00;;;;;;;16.08;7.10;;;;;;;-0.33;100.00;100815.41;6176452;28;20562;-74
2022/12/10 10:43:02;;;;;;;15.07;7.32;;;;;;;-0.33;100.00;100819.72;6176725;28;20051;-75
2022/12/10 10:46:07;;;;;;;16.33;8.15;;;;;;;-0.32;100.00;100827.47;6176312;28;20070;-74
2022/12/10 10:49:22;;;;;;;16.05;8.50;;;;;;;-0.37;100.00;100818.88;6176581;28;20061;-74
2022/12/10 10:52:29;;;;;;;15.27;6.55;;;;;;;-0.40;100.00;100823.25;6176234;28;20057;-75
2022/12/10 10:55:35;;;;;;;25.15;9.48;;;;;;;-0.37;100.00;100818.88;6176399;28;20062;-75
2022/12/10 10:58:38;;;;;;;18.35;7.07;;;;;;;-0.40;100.00;100823.25;6176218;28;20573;-75
2022/12/10 11:01:47;;;;;;;16.85;7.03;;;;;;;-0.43;100.00;100828.41;6176061;28;20051;-75
2022/12/10 11:04:51;;;;;;;19.27;8.68;;;;;;;-0.41;100.00;100818.91;6175867;28;20047;-73
2022/12/10 11:07:59;;;;;;;17.40;7.97;;;;;;;-0.36;100.00;100817.19;6176310;28;20043;-74
2022/12/10 11:11:04;;;;;;;18.58;7.72;;;;;;;-0.41;100.00;100817.22;6175740;28;20047;-74
2022/12/10 11:14:24;;;;;;;16.58;7.35;;;;;;;-0.45;100.00;100814.66;6175728;28;20050;-74
2022/12/10 11:17:27;;;;;;;22.05;8.00;;;;;;;-0.39;100.00;100820.63;6175762;28;20054;-74
2022/12/10 11:20:31;;;;;;;15.48;8.02;;;;;;;-0.41;100.00;100819.81;6175825;28;20081;-73
2022/12/10 11:23:40;;;;;;;21.02;7.20;;;;;;;-0.51;100.00;100820.72;6176349;28;20071;-79
2022/12/10 11:26:57;;;;;;;17.73;6.73;;;;;;;-0.52;100.00;100819.00;6175920;28;20051;-74
2022/12/10 11:30:04;;;;;;;15.13;7.85;;;;;;;-0.49;100.00;100810.41;6175386;28;20058;-74
2022/12/10 11:33:22;;;;;;;20.90;9.40;;;;;;;-0.44;100.00;100816.38;6175024;28;20051;-74
2022/12/10 11:36:35;;;;;;;21.55;7.95;;;;;;;-0.40;100.00;100807.75;6175397;28;20042;-75
2022/12/10 11:39:57;;;;;;;15.70;7.60;;;;;;;-0.40;100.00;100811.19;6175178;28;20058;-74
2022/12/10 11:43:15;;;;;;;16.85;7.47;;;;;;;-0.33;100.00;100812.84;6174950;28;20404;-74
2022/12/10 11:46:32;;;;;;;15.98;7.63;;;;;;;-0.30;100.00;100814.53;6174848;28;20518;-74
2022/12/10 11:49:42;;;;;;;19.55;10.02;;;;;;;-0.28;100.00;100818.81;6175152;28;20058;-74
2022/12/10 11:52:59;;;;;;;12.38;6.22;;;;;;;-0.44;100.00;100818.97;6174933;28;20567;-74
2022/12/10 11:56:15;;;;;;;22.65;10.23;;;;;;;-0.48;100.00;100818.13;6174820;28;20043;-74
2022/12/10 11:59:28;;;;;;;13.38;7.15;;;;;;;-0.48;100.00;100818.13;6175105;28;20051;-74
2022/12/10 12:02:47;;;;;;;20.42;8.25;;;;;;;-0.51;100.00;100818.13;6174488;28;20050;-74
2022/12/10 12:06:09;;;;;;;15.60;7.65;;;;;;;-0.58;100.00;100813.91;6174756;28;20071;-74
2022/12/10 12:09:21;;;;;;;29.27;7.00;;;;;;;-0.50;100.00;100817.25;6174563;28;20050;-74
2022/12/10 12:12:36;;;;;;;10.88;5.70;;;;;;;-0.52;100.00;100809.53;6174511;28;20047;-74
2022/12/10 12:15:43;;;;;;;22.63;9.02;;;;;;;-0.40;100.00;100810.34;6174692;28;20061;-74
2022/12/10 12:18:50;;;;;;;16.48;7.60;;;;;;;-0.38;100.00;100816.31;6174373;28;20051;-74
2022/12/10 12:21:52;;;;;;;21.50;8.25;;;;;;;-0.40;100.00;100811.19;6174191;28;20049;-74
2022/12/10 12:25:00;;;;;;;17.42;7.32;;;;;;;-0.46;100.00;100806.03;6174220;28;20058;-75
2022/12/10 12:28:10;;;;;;;17.95;7.07;;;;;;;-0.48;100.00;100812.97;6174491;28;20043;-74
2022/12/10 12:31:18;;;;;;;18.90;9.27;;;;;;;-0.41;100.00;100806.91;6174102;28;20510;-74
2022/12/10 12:34:25;;;;;;;14.88;7.15;;;;;;;-0.39;100.00;100805.16;6173774;28;20051;-74
2022/12/10 12:37:33;;;;;;;14.90;7.13;;;;;;;-0.37;100.00;100805.13;6174022;28;20074;-74
2022/12/10 12:40:40;;;;;;;20.40;6.65;;;;;;;-0.31;100.00;100810.25;6174595;28;20046;-75
2022/12/10 12:43:49;;;;;;;16.63;7.10;;;;;;;-0.30;100.00;100810.25;6183609;28;20042;-74
2022/12/10 12:46:52;;;;;;;20.20;10.05;;;;;;;-0.38;100.00;100808.59;6189980;28;20050;-74
2022/12/10 12:49:56;;;;;;;25.58;9.77;;;;;;;-0.38;100.00;100817.19;6195120;28;20088;-73
2022/12/10 12:53:00;;;;;;;16.42;8.35;;;;;;;-0.37;100.00;100818.03;6198027;28;20057;-74
2022/12/10 12:56:06;;;;;;;17.80;7.78;;;;;;;-0.42;100.00;100819.78;6189432;28;20054;-74
2022/12/10 12:59:17;;;;;;;16.23;7.25;;;;;;;-0.46;100.00;100823.25;6193248;28;20046;-75
2022/12/10 13:02:31;;;;;;;15.27;7.22;;;;;;;-0.54;100.00;100815.59;6197499;28;20046;-75
2022/12/10 13:05:35;;;;;;;18.80;6.97;;;;;;;-0.47;100.00;100827.56;6197846;28;20642;-75
2022/12/10 13:08:43;;;;;;;15.70;6.65;;;;;;;-0.49;100.00;100831.91;6197833;28;20050;-75
2022/12/10 13:11:46;;;;;;;13.63;6.68;;;;;;;-0.47;100.00;100831.88;6197757;28;20054;-75
2022/12/10 13:15:15;;;;;;;19.42;7.93;;;;;;;-0.40;100.00;100828.41;6197273;28;20057;-74
2022/12/10 13:18:34;;;;;;;;;;;;;;;-0.40;100.00;100828.41;6198115;28;20514;-75
2022/12/10 13:21:56;;;;;;;17.05;6.05;;;;;;;-0.36;100.00;100822.34;6197660;28;19972;-75
2022/12/10 13:25:12;;;;;;;20.20;6.75;;;;;;;-0.35;100.00;100821.47;6197400;28;20065;-74
2022/12/10 13:28:29;;;;;;;21.88;8.82;;;;;;;-0.29;100.00;100835.19;6197459;28;20047;-74
2022/12/10 13:31:38;;;;;;;15.40;6.75;;;;;;;-0.28;100.00;100826.56;6197169;28;20058;-74
2022/12/10 13:34:40;;;;;;;20.13;6.80;;;;;;;-0.22;100.00;100832.56;6172664;28;20051;-74
2022/12/10 13:37:55;;;;;;;19.90;8.43;;;;;;;-0.29;100.00;100818.84;6173341;28;20410;-74
2022/12/10 13:44:33;;;;;;;16.85;7.35;;;;;;;-0.40;100.00;100831.84;6173106;28;20130;-74
2022/12/10 13:47:44;;;;;;;17.35;8.07;;;;;;;-0.31;100.00;100830.91;6173206;28;20047;-74
2022/12/10 13:50:50;;;;;;;26.73;7.82;;;;;;;-0.33;100.00;100835.22;6173190;28;20530;-74
2022/12/10 13:54:11;;;;;;;23.88;7.70;;;;;;;-0.27;100.00;100843.78;6172936;28;20495;-74
2022/12/10 13:57:31;;;;;;;16.80;6.78;;;;;;;-0.26;100.00;100842.91;6173269;28;20136;-73
2022/12/10 14:00:35;;;;;;;;;;;;;;;-0.33;100.00;100851.56;6173278;28;20051;-73
2022/12/10 14:03:57;;;;;;;17.30;6.88;;;;;;;-0.26;100.00;100861.00;6173094;28;20397;-74
2022/12/10 14:07:00;;;;;;;18.17;7.93;;;;;;;-0.33;100.00;100866.19;6184671;28;20533;-74
2022/12/10 14:10:02;;;;;;;20.40;7.70;;;;;;;-0.34;100.00;100869.66;6201379;28;20050;-74
2022/12/10 14:13:05;;;;;;;19.67;9.00;;;;;;;-0.33;100.00;100877.38;6201281;28;20426;-74
2022/12/10 14:16:12;;;;;;;26.70;9.88;;;;;;;-0.25;100.00;100877.34;6201036;28;20050;-74
2022/12/10 14:19:17;;;;;;;19.95;7.57;;;;;;;-0.28;100.00;100874.75;6199980;28;20132;-74